This is the latest recevied weather packets stored in our database for station/object GW1497. If no packets are shown the sender has not sent any weather packets the latest 10 day(s).
| Time | Temp. | Humidity | Pressure | Rain* | Wind** | Luminosity | Snow |
|---|---|---|---|---|---|---|---|
| 1777971810 | 17.78° C | 61% | 1011.5 hPa | 0 mm | - | - | - |
| 1777970370 | 17.78° C | 61% | 1011.8 hPa | 0 mm | - | - | - |
| 1777967849 | 17.78° C | 60% | 1011.5 hPa | 0 mm | - | - | - |
| 1777967471 | 17.78° C | 60% | 1011.1 hPa | 0 mm | - | - | - |
| 1777966779 | 17.78° C | 60% | 1011.1 hPa | 0 mm | - | - | - |
| 1777959570 | 18.33° C | 60% | 1011.5 hPa | 0 mm | - | - | - |
| 1777959189 | 18.33° C | 60% | 1011.5 hPa | 0 mm | - | - | - |
| 1777958137 | 18.33° C | 60% | 1011.5 hPa | 0 mm | - | - | - |
| 1777949863 | 17.78° C | 65% | 1011.1 hPa | 0 mm | - | - | - |
| 1777946966 | 17.78° C | 64% | 1010.8 hPa | 0 mm | - | - | - |
| 1777946597 | 17.78° C | 64% | 1011.1 hPa | 0 mm | - | - | - |
| 1777945158 | 18.33° C | 63% | 1011.1 hPa | 0 mm | - | - | - |
| 1777943736 | 18.33° C | 62% | 1011.1 hPa | 0 mm | - | - | - |
| 1777943011 | 18.89° C | 61% | 1011.1 hPa | 0 mm | - | - | - |
| 1777940113 | 19.44° C | 59% | 1011.1 hPa | 0 mm | - | - | - |
| 1777937621 | 20° C | 56% | 1011.5 hPa | 0 mm | - | - | - |
| 1777932196 | 21.11° C | 52% | 1011.5 hPa | 0 mm | - | - | - |
| 1777928990 | 21.11° C | 52% | 1011.5 hPa | 0 mm | - | - | - |
| 1777927172 | 20° C | 56% | 1011.5 hPa | 0 mm | - | - | - |
| 1777925741 | 20.56° C | 53% | 1011.5 hPa | 0 mm | - | - | - |
| 1777921789 | 21.11° C | 55% | 1011.8 hPa | 0 mm | - | - | - |
| 1777917800 | 20° C | 51% | 1012.1 hPa | 0 mm | - | - | - |
| 1777915633 | 20° C | 53% | 1012.8 hPa | 0 mm | - | - | - |
| 1777913498 | 18.89° C | 55% | 1013.2 hPa | 0 mm | - | - | - |
| 1777911690 | 17.22° C | 57% | 1013.8 hPa | 0 mm | - | - | - |
* Rain since midnight (hover to see other rain measurements)
** Current wind speed in m/s (hover to see current wind gust speed)